• LFSB

    METAR de LFSB (émis le 2021/05/16 07:30 UTC):
    LFSB 160730Z 10004KT 9999 FEW030 SCT043 BKN096 12/09 Q1008 NOSIG

    TAF de LFSB (émis le 2021/05/16 06:21 UTC):
    LFSB 160500Z 1606/1706 16005KT 9999 FEW035 BKN065 TEMPO 1610/1614 -SHRA FEW025TCU BECMG 1614/1616 27010KT TEMPO 1616/1706 4000 SHRA SCT030TCU PROB40 TEMPO 1618/1621 28015G27KT 2000 TSRA SCT025CB
  • LFSX

    METAR de LFSX (émis le 2021/05/16 07:30 UTC):
    LFSX 160730Z AUTO 17003KT 110V210 9999 SCT013 BKN020 BKN066 12/09 Q1007

    TAF de LFSX (émis le 2021/05/16 03:06 UTC):
    LFSX 160200Z 1603/1703 21010KT 9999 BKN025 TEMPO 1608/1703 4000 SHRA BKN014 BKN020TCU PROB30 TEMPO 1610/1620 2000 TSRA BKN010 BKN020CB
  • LFSD

    METAR de LFSD (émis le 2021/05/16 07:30 UTC):
    LFSD 160730Z AUTO 19006KT 160V220 9999 -RA ///TCU 10/09 Q1007

    TAF de LFSD (émis le 2015/06/01 00:11 UTC):
    LFSD 010600Z 0100/0124 CNL
  • LFGJ

    METAR de LFGJ (émis le 2021/05/16 07:30 UTC):
    LFGJ 160730Z AUTO 22003KT 9999 RA ///TCU 12/10 Q1008 TEMPO NSW BKN014

    TAF COURT de LFGJ
    (émis le 2021/05/16 06:21 UTC):
    TAF LFGJ 160500Z 1606/1615 20005KT CAVOK TEMPO 1609/1611 RA BKN014 PROB40 TEMPO 1612/1615 25015G25KT 4000 SHRA FEW030CB
  • LFJL

    METAR de LFJL (émis le 2021/05/16 07:30 UTC):
    LFJL 160730Z AUTO 22012KT 9999 SCT014 BKN019 BKN026 12/10 Q1006 NOSIG

    TAF de LFJL (émis le 2021/05/16 06:26 UTC):
    LFJL 160500Z 1606/1706 23012KT 9999 FEW015 BKN025 PROB40 TEMPO 1606/1608 BKN010 TEMPO 1611/1624 4000 SHRA FEW025CB PROB40 TEMPO 1614/1618 29020G43KT 1500 TSRA BKN014 SCT020CB TEMPO 1700/1706 RA BKN010
  • LFST

    METAR de LFST (émis le 2021/05/16 07:30 UTC):
    LFST 160730Z AUTO 19010KT 9999 BKN047 BKN058 BKN074 13/11 Q1007 NOSIG

    TAF de LFST (émis le 2021/05/16 06:21 UTC):
    LFST 160500Z 1606/1706 19008KT 9999 SCT020 BKN035 TEMPO 1612/1622 4000 SHRA SCT035TCU PROB40 TEMPO 1615/1619 19015G25KT 1500 TSRA SCT020CB TEMPO 1702/1706 RA